CheckWX is a tool to help pilots better visualize weather data.  It is not intended as a substitute for an official pre-flight weather briefing.

08:03:18 UTC

KLVN METAR
Airlake Airport
Minneapolis, Minnesota, USA
Current

1 hour ago

KLVN 210655Z AUTO 00000KT 10SM M19/M20 A3055 RMK AO2
Observed
Jan-21 @ 06:55 UTC
Visibility
10 SM
Temperature
-19°C / -2°F
Dewpoint
-20°C / -4°F
Humidity
92%
Altimeter
30.55" Hg
Pressure
1034.52 hPa
Previous

2 hours ago

KLVN 210555Z AUTO 00000KT 10SM M20/M21 A3057 RMK AO2
Observed
Jan-21 @ 05:55 UTC
Visibility
10 SM
Temperature
-20°C / -4°F
Dewpoint
-21°C / -6°F
Humidity
92%
Altimeter
30.57" Hg
Pressure
1035.22 hPa
Previous

3 hours ago

KLVN 210455Z AUTO 00000KT 10SM M19/M19 A3058 RMK AO2
Observed
Jan-21 @ 04:55 UTC
Visibility
10 SM
Temperature
-19°C / -2°F
Dewpoint
-19°C / -2°F
Humidity
100%
Altimeter
30.58" Hg
Pressure
1035.52 hPa